Time;durP1;ratioP1;P1;durP2;ratioP2;P2;SDS_P1;SDS_P2;PMS_P1;PMS_P2;Temp;Humidity;BMP_temperature;BMP_pressure;BME280_temperature;BME280_humidity;BME280_pressure;Samples;Min_cycle;Max_cycle;Signal;HPM_P1;HPM_P2
2021/04/20 00:00:50;;;;;;;17.50;14.23;;;7.00;99.90;;;;;;5074978;28;20044;-75
2021/04/20 00:03:16;;;;;;;16.83;13.93;;;7.00;99.90;;;;;;5073754;28;20029;-75
2021/04/20 00:05:42;;;;;;;15.88;13.13;;;6.90;99.90;;;;;;5075017;28;20017;-77
2021/04/20 00:08:07;;;;;;;17.40;13.77;;;6.90;99.90;;;;;;5073524;28;20448;-75
2021/04/20 00:10:33;;;;;;;17.38;14.80;;;6.90;99.90;;;;;;5074969;28;20028;-75
2021/04/20 00:12:59;;;;;;;17.70;14.55;;;6.90;99.90;;;;;;5073612;28;20024;-75
2021/04/20 00:15:29;;;;;;;18.30;14.43;;;6.90;99.90;;;;;;5074907;28;20025;-75
2021/04/20 00:17:57;;;;;;;17.35;13.55;;;6.80;99.90;;;;;;5074439;28;20025;-76
2021/04/20 00:20:23;;;;;;;17.50;13.20;;;6.80;99.90;;;;;;5074824;28;20044;-75
2021/04/20 00:22:49;;;;;;;15.35;13.30;;;6.90;99.90;;;;;;5074546;28;20035;-75
2021/04/20 00:25:15;;;;;;;17.65;13.63;;;6.80;99.90;;;;;;5073187;28;20032;-75
2021/04/20 00:27:41;;;;;;;19.42;13.40;;;6.70;99.90;;;;;;5074574;28;20108;-76
2021/04/20 00:30:08;;;;;;;15.10;12.50;;;6.60;99.90;;;;;;5074345;28;20108;-78
2021/04/20 00:32:35;;;;;;;17.48;12.80;;;6.70;99.90;;;;;;5073405;28;20416;-75
2021/04/20 00:35:01;;;;;;;15.07;11.95;;;6.70;99.90;;;;;;5073114;28;20348;-75
2021/04/20 00:37:27;;;;;;;15.95;13.07;;;6.60;99.90;;;;;;5074268;28;20021;-75
2021/04/20 00:39:53;;;;;;;13.95;11.77;;;6.60;99.90;;;;;;5073179;28;20036;-75
2021/04/20 00:42:19;;;;;;;15.48;12.68;;;6.60;99.90;;;;;;5074134;28;20064;-78
2021/04/20 00:44:44;;;;;;;17.08;13.57;;;6.60;99.90;;;;;;5072873;28;20032;-76
2021/04/20 00:47:10;;;;;;;17.05;14.15;;;6.60;99.90;;;;;;5073883;28;20105;-75
2021/04/20 00:49:36;;;;;;;16.90;13.80;;;6.60;99.90;;;;;;5074314;28;20096;-75
2021/04/20 00:52:03;;;;;;;22.73;15.15;;;6.60;99.90;;;;;;5072859;28;20028;-75
2021/04/20 00:54:28;;;;;;;16.10;13.55;;;6.60;99.90;;;;;;5072741;28;20028;-75
2021/04/20 00:56:54;;;;;;;17.75;13.35;;;6.60;99.90;;;;;;5072532;28;20032;-74
2021/04/20 00:59:20;;;;;;;16.42;13.00;;;6.60;99.90;;;;;;5073960;28;20048;-75
2021/04/20 01:01:47;;;;;;;15.30;12.23;;;6.60;99.90;;;;;;5072360;28;20052;-74
2021/04/20 01:04:14;;;;;;;17.67;12.70;;;6.60;99.90;;;;;;5073630;28;20110;-75
2021/04/20 01:06:44;;;;;;;16.60;12.55;;;6.60;99.90;;;;;;5073734;28;20103;-75
2021/04/20 01:09:10;;;;;;;15.77;12.75;;;6.60;99.90;;;;;;5073563;28;20020;-75
2021/04/20 01:11:37;;;;;;;16.65;11.68;;;6.60;99.90;;;;;;5072604;28;20025;-75
2021/04/20 01:14:04;;;;;;;14.65;12.23;;;6.60;99.90;;;;;;5073580;28;20017;-75
2021/04/20 01:16:32;;;;;;;15.70;12.52;;;6.70;99.90;;;;;;5072149;28;20024;-76
2021/04/20 01:18:57;;;;;;;13.63;11.02;;;6.60;99.90;;;;;;5072541;28;20029;-75
2021/04/20 01:21:23;;;;;;;19.02;13.23;;;6.60;99.90;;;;;;5073379;28;20103;-75
2021/04/20 01:24:07;;;;;;;14.90;11.82;;;6.50;99.90;;;;;;5072115;28;20344;-75
2021/04/20 01:26:45;;;;;;;13.20;11.07;;;6.60;99.90;;;;;;5073484;28;20024;-77
2021/04/20 01:29:12;;;;;;;14.52;11.88;;;6.60;99.90;;;;;;5072029;28;20023;-76
2021/04/20 01:31:41;;;;;;;15.55;11.73;;;6.60;99.90;;;;;;5072165;28;20048;-75
2021/04/20 01:34:07;;;;;;;13.95;11.13;;;6.60;99.90;;;;;;5071963;28;20024;-75
2021/04/20 01:36:34;;;;;;;12.00;10.65;;;6.50;99.90;;;;;;5073238;28;20020;-75
2021/04/20 01:39:00;;;;;;;12.70;10.35;;;6.60;99.90;;;;;;5072958;28;20487;-75
2021/04/20 01:41:28;;;;;;;12.70;10.13;;;6.50;99.90;;;;;;5073169;28;20021;-74
2021/04/20 01:43:56;;;;;;;14.32;10.50;;;6.50;99.90;;;;;;5071865;28;20021;-74
2021/04/20 01:46:22;;;;;;;15.23;11.50;;;6.50;99.90;;;;;;5073272;28;20028;-76
2021/04/20 01:48:49;;;;;;;16.98;11.45;;;6.50;99.90;;;;;;5072007;28;20028;-78
2021/04/20 01:51:16;;;;;;;14.82;11.52;;;6.50;99.90;;;;;;5071851;28;20031;-76
2021/04/20 01:53:42;;;;;;;16.60;13.50;;;6.40;99.90;;;;;;5071886;28;20460;-75
2021/04/20 01:56:10;;;;;;;15.55;11.95;;;6.40;99.90;;;;;;5072964;28;20115;-76
2021/04/20 01:58:39;;;;;;;21.77;13.73;;;6.40;99.90;;;;;;5072795;28;20151;-76
2021/04/20 02:01:09;;;;;;;17.38;12.38;;;6.40;99.90;;;;;;5071492;28;20044;-75
2021/04/20 02:03:35;;;;;;;17.52;12.88;;;6.40;99.90;;;;;;5072798;28;20029;-75
2021/04/20 02:06:01;;;;;;;19.63;13.27;;;6.40;99.90;;;;;;5072753;28;20024;-75
2021/04/20 02:08:28;;;;;;;16.60;13.00;;;6.40;99.90;;;;;;5071433;28;20024;-76
2021/04/20 02:10:56;;;;;;;15.50;12.93;;;6.40;99.90;;;;;;5072817;28;20087;-75
2021/04/20 02:13:22;;;;;;;15.57;12.88;;;6.50;99.90;;;;;;5072568;28;20055;-75
2021/04/20 02:15:47;;;;;;;17.02;12.93;;;6.40;99.90;;;;;;5072723;28;20029;-76
2021/04/20 02:18:14;;;;;;;17.30;12.85;;;6.40;99.90;;;;;;5072578;28;20383;-75
2021/04/20 02:20:41;;;;;;;20.10;12.85;;;6.50;99.90;;;;;;5072282;28;20066;-77
2021/04/20 02:23:10;;;;;;;16.42;12.45;;;6.40;99.90;;;;;;5072287;28;20021;-75
2021/04/20 02:25:36;;;;;;;15.48;12.25;;;6.30;99.90;;;;;;5072589;28;20035;-76
2021/04/20 02:28:02;;;;;;;14.23;12.40;;;6.40;99.90;;;;;;5072356;28;20078;-75
2021/04/20 02:30:29;;;;;;;16.02;12.32;;;6.30;99.90;;;;;;5071406;28;20024;-75
2021/04/20 02:32:58;;;;;;;15.82;12.32;;;6.30;99.90;;;;;;5072274;28;20043;-75
2021/04/20 02:35:28;;;;;;;16.67;13.00;;;6.20;99.90;;;;;;5072392;28;20028;-76
2021/04/20 02:37:54;;;;;;;14.57;11.55;;;6.30;99.90;;;;;;5070932;28;20464;-76
2021/04/20 02:40:22;;;;;;;17.92;13.02;;;6.20;99.90;;;;;;5071968;28;20040;-76
2021/04/20 02:42:50;;;;;;;18.13;13.75;;;6.20;99.90;;;;;;5072471;28;20024;-75
2021/04/20 02:45:16;;;;;;;15.80;12.80;;;6.20;99.90;;;;;;5072147;28;20813;-77
2021/04/20 02:47:43;;;;;;;18.25;13.43;;;6.20;99.90;;;;;;5072033;28;20032;-76
2021/04/20 02:50:14;;;;;;;18.60;13.15;;;6.20;99.90;;;;;;5072243;28;20521;-75
2021/04/20 02:52:41;;;;;;;18.48;13.43;;;6.10;99.90;;;;;;5070658;28;20044;-76
2021/04/20 02:55:10;;;;;;;15.90;12.50;;;6.10;99.90;;;;;;5072029;28;20060;-75
2021/04/20 02:57:42;;;;;;;17.00;11.40;;;6.10;99.90;;;;;;5071861;28;20012;-75
2021/04/20 03:00:11;;;;;;;14.05;11.15;;;6.10;99.90;;;;;;5070866;28;20051;-76
2021/04/20 03:02:39;;;;;;;14.35;11.35;;;6.00;99.90;;;;;;5070843;28;20122;-78
2021/04/20 03:05:13;;;;;;;15.43;11.05;;;6.00;99.90;;;;;;5072079;28;20028;-75
2021/04/20 03:07:38;;;;;;;15.70;10.80;;;6.00;99.90;;;;;;5070585;28;20024;-75
2021/04/20 03:10:05;;;;;;;15.23;11.45;;;5.90;99.90;;;;;;5071689;28;20059;-74
2021/04/20 03:12:32;;;;;;;14.95;11.35;;;5.80;99.90;;;;;;5071860;28;20024;-75
2021/04/20 03:14:59;;;;;;;14.07;10.70;;;5.80;99.90;;;;;;5071887;28;20032;-74
2021/04/20 03:17:25;;;;;;;17.10;12.18;;;5.70;99.90;;;;;;5072046;28;20059;-75
2021/04/20 03:19:51;;;;;;;14.93;11.70;;;5.60;99.90;;;;;;5071918;28;20060;-75
2021/04/20 03:22:17;;;;;;;14.88;11.30;;;5.60;99.90;;;;;;5071813;28;20071;-74
2021/04/20 03:25:08;;;;;;;14.45;11.20;;;5.60;99.90;;;;;;5071878;28;20056;-75
2021/04/20 03:27:45;;;;;;;17.95;12.70;;;5.50;99.90;;;;;;5070774;28;20490;-76
2021/04/20 03:30:13;;;;;;;17.50;13.20;;;5.50;99.90;;;;;;5071607;28;20078;-75
2021/04/20 03:32:48;;;;;;;19.52;13.93;;;5.50;99.90;;;;;;5071880;28;20108;-76
2021/04/20 03:35:19;;;;;;;18.90;14.20;;;5.40;99.90;;;;;;5071683;28;20526;-74
2021/04/20 03:37:53;;;;;;;16.77;12.95;;;5.50;99.90;;;;;;5071662;28;20344;-75
2021/04/20 03:40:21;;;;;;;14.30;11.55;;;5.50;99.90;;;;;;5071837;28;20110;-75
2021/04/20 03:42:53;;;;;;;14.45;11.63;;;5.50;99.90;;;;;;5074369;28;20387;-76
2021/04/20 03:45:26;;;;;;;16.13;13.18;;;5.50;99.90;;;;;;5075557;28;20017;-74
2021/04/20 03:48:03;;;;;;;13.57;11.43;;;5.40;99.90;;;;;;5073822;28;20368;-75
2021/04/20 03:50:33;;;;;;;15.75;12.13;;;5.40;99.90;;;;;;5075361;28;20017;-76
2021/04/20 03:53:04;;;;;;;20.60;14.45;;;5.40;99.90;;;;;;5073795;28;20021;-76
2021/04/20 03:55:33;;;;;;;21.52;14.30;;;5.30;99.90;;;;;;5075061;28;20483;-76
2021/04/20 03:58:00;;;;;;;21.02;14.35;;;5.20;99.90;;;;;;5073621;28;20028;-77
2021/04/20 04:00:26;;;;;;;20.60;14.05;;;5.10;99.90;;;;;;5074846;28;20095;-76
2021/04/20 04:02:54;;;;;;;17.52;12.13;;;5.20;99.90;;;;;;5074902;28;20036;-76
2021/04/20 04:05:24;;;;;;;15.98;11.80;;;5.10;99.90;;;;;;5073686;28;20147;-76
2021/04/20 04:07:53;;;;;;;14.85;11.82;;;5.20;99.90;;;;;;5074901;28;20594;-75
2021/04/20 04:10:20;;;;;;;19.95;12.52;;;5.00;99.90;;;;;;5073569;28;20487;-75
2021/04/20 04:12:53;;;;;;;15.65;12.45;;;5.10;99.90;;;;;;5074716;28;20103;-75
2021/04/20 04:15:21;;;;;;;21.02;15.40;;;5.00;99.90;;;;;;5074903;28;20020;-75
2021/04/20 04:17:49;;;;;;;19.00;15.27;;;5.00;99.90;;;;;;5074620;28;20027;-75
2021/04/20 04:20:15;;;;;;;15.35;12.10;;;5.00;99.90;;;;;;5075555;28;20056;-75
2021/04/20 04:23:12;;;;;;;13.35;10.25;;;4.90;99.90;;;;;;5075322;28;20416;-76
2021/04/20 04:25:46;;;;;;;13.25;10.20;;;5.20;99.90;;;;;;5073704;28;20430;-75
2021/04/20 04:28:13;;;;;;;13.13;9.70;;;5.20;99.90;;;;;;5074510;28;20448;-76
2021/04/20 04:30:39;;;;;;;14.88;11.60;;;5.20;99.90;;;;;;5073195;28;20403;-75
2021/04/20 04:33:06;;;;;;;21.95;19.45;;;5.20;99.90;;;;;;5074730;28;20356;-77
2021/04/20 04:35:35;;;;;;;20.83;17.65;;;5.10;99.90;;;;;;5074432;28;20484;-77
2021/04/20 04:38:01;;;;;;;17.60;14.30;;;5.20;99.90;;;;;;5074430;28;20021;-76
2021/04/20 04:40:28;;;;;;;13.13;10.77;;;5.20;99.90;;;;;;5073020;28;20617;-75
2021/04/20 04:42:53;;;;;;;16.08;10.68;;;5.20;99.90;;;;;;5074785;28;20048;-78
2021/04/20 04:45:20;;;;;;;16.75;11.90;;;5.40;99.90;;;;;;5073725;28;20040;-76
2021/04/20 04:47:46;;;;;;;17.55;11.60;;;5.30;99.90;;;;;;5076180;28;20386;-77
2021/04/20 04:50:12;;;;;;;19.10;12.85;;;5.30;99.90;;;;;;5075181;28;20020;-78
2021/04/20 04:52:39;;;;;;;16.77;12.52;;;5.30;99.90;;;;;;5073797;28;20452;-75
2021/04/20 04:55:06;;;;;;;17.02;12.70;;;5.30;99.90;;;;;;5073565;28;20036;-78
2021/04/20 04:57:34;;;;;;;15.95;12.25;;;5.30;99.90;;;;;;5074126;28;20050;-76
2021/04/20 05:00:03;;;;;;;18.55;13.88;;;5.30;99.90;;;;;;5075138;28;20037;-78
2021/04/20 05:02:29;;;;;;;17.67;13.10;;;5.40;99.90;;;;;;5074703;28;20048;-79
2021/04/20 05:05:06;;;;;;;21.92;12.77;;;5.30;99.90;;;;;;5074468;28;20068;-78
2021/04/20 05:07:32;;;;;;;19.70;14.02;;;5.40;99.90;;;;;;5074204;28;20032;-79
2021/04/20 05:10:07;;;;;;;18.05;13.32;;;5.60;99.90;;;;;;5074522;28;20043;-78
2021/04/20 05:12:34;;;;;;;18.53;13.43;;;5.50;99.90;;;;;;5074039;28;20035;-80
2021/04/20 05:15:15;;;;;;;19.70;14.35;;;5.60;99.90;;;;;;5073957;28;20035;-79
2021/04/20 05:17:42;;;;;;;20.73;13.23;;;5.60;99.90;;;;;;5072611;28;20518;-77
2021/04/20 05:20:17;;;;;;;16.30;12.75;;;5.60;99.90;;;;;;5073700;28;20491;-78
2021/04/20 05:22:45;;;;;;;17.67;14.23;;;5.60;99.90;;;;;;5073615;28;20014;-78
2021/04/20 05:25:14;;;;;;;22.65;14.77;;;5.60;99.90;;;;;;5073412;28;20074;-78
2021/04/20 05:27:40;;;;;;;19.52;14.30;;;5.70;99.90;;;;;;5074019;28;20042;-80
2021/04/20 05:30:07;;;;;;;19.13;14.55;;;5.70;99.90;;;;;;5074201;28;20457;-80
2021/04/20 05:32:37;;;;;;;22.55;14.90;;;5.80;99.90;;;;;;5073835;28;20016;-81
2021/04/20 05:35:04;;;;;;;20.38;15.23;;;5.80;99.90;;;;;;5074603;28;20066;-78
2021/04/20 05:37:30;;;;;;;21.77;14.60;;;5.90;99.90;;;;;;5073735;28;20525;-78
2021/04/20 05:40:03;;;;;;;21.30;15.07;;;6.00;99.90;;;;;;5073479;28;20083;-79
2021/04/20 05:42:29;;;;;;;18.40;14.15;;;6.00;99.90;;;;;;5073943;28;20027;-81
2021/04/20 05:44:58;;;;;;;20.27;15.50;;;6.00;99.90;;;;;;5072706;28;20033;-78
2021/04/20 05:47:24;;;;;;;29.45;22.63;;;6.10;99.90;;;;;;5072211;28;20052;-79
2021/04/20 05:50:11;;;;;;;43.28;28.48;;;6.10;99.90;;;;;;5073528;28;20083;-79
2021/04/20 05:52:37;;;;;;;42.45;28.65;;;6.10;99.90;;;;;;5073333;28;20044;-78
2021/04/20 05:55:05;;;;;;;39.60;27.00;;;6.20;99.90;;;;;;5073660;28;20024;-78
2021/04/20 05:57:31;;;;;;;32.17;22.77;;;6.20;99.90;;;;;;5071972;28;20041;-80
2021/04/20 05:59:57;;;;;;;29.02;21.15;;;6.30;99.90;;;;;;5072117;28;20098;-81
2021/04/20 06:02:29;;;;;;;20.40;16.13;;;6.30;99.90;;;;;;5073108;28;20048;-80
2021/04/20 06:04:58;;;;;;;17.15;13.73;;;6.40;99.90;;;;;;5073064;28;20023;-81
2021/04/20 06:07:24;;;;;;;21.70;15.77;;;6.50;99.90;;;;;;5072884;28;20024;-76
2021/04/20 06:09:51;;;;;;;18.40;14.20;;;6.50;99.90;;;;;;5072779;28;20063;-75
2021/04/20 06:12:16;;;;;;;16.83;10.48;;;6.60;99.90;;;;;;5072883;28;20075;-76
2021/04/20 06:14:43;;;;;;;16.92;10.75;;;6.90;99.90;;;;;;5073212;28;20052;-79
2021/04/20 06:17:13;;;;;;;19.25;14.55;;;8.30;99.90;;;;;;5072603;28;20460;-77
2021/04/20 06:19:40;;;;;;;14.77;12.23;;;8.20;99.90;;;;;;5070539;28;20167;-78
2021/04/20 06:22:11;;;;;;;16.67;13.35;;;7.90;99.90;;;;;;5070878;28;20020;-79
2021/04/20 06:24:36;;;;;;;17.05;14.88;;;7.80;99.90;;;;;;5071359;28;20448;-75
2021/04/20 06:27:03;;;;;;;18.35;14.15;;;7.70;99.90;;;;;;5072357;28;20039;-77
2021/04/20 06:29:29;;;;;;;20.85;16.30;;;7.40;99.90;;;;;;5072383;28;20082;-75
2021/04/20 06:31:55;;;;;;;22.80;16.80;;;7.40;99.90;;;;;;5072324;28;20036;-76
2021/04/20 06:34:26;;;;;;;17.83;14.70;;;7.60;99.90;;;;;;5072559;28;20021;-80
2021/04/20 06:36:53;;;;;;;18.67;15.00;;;7.70;99.90;;;;;;5071074;28;20028;-75
2021/04/20 06:39:20;;;;;;;20.23;16.27;;;7.70;99.90;;;;;;5070956;28;20479;-79
2021/04/20 06:41:51;;;;;;;19.10;14.88;;;7.80;99.90;;;;;;5071255;28;20071;-80
2021/04/20 06:44:53;;;;;;;18.27;13.05;;;7.90;99.90;;;;;;5071070;28;20387;-78
2021/04/20 06:47:22;;;;;;;18.20;14.20;;;8.00;99.90;;;;;;5068168;28;20051;-77
2021/04/20 06:50:04;;;;;;;15.88;13.30;;;8.20;99.90;;;;;;5071037;28;20486;-80
2021/04/20 06:52:33;;;;;;;17.20;12.90;;;8.40;99.90;;;;;;5072205;28;20025;-75
2021/04/20 06:55:06;;;;;;;17.08;14.27;;;8.40;99.90;;;;;;5070939;28;20454;-77
2021/04/20 06:57:55;;;;;;;16.02;13.40;;;8.60;99.90;;;;;;5072086;28;20025;-77
2021/04/20 07:00:27;;;;;;;16.05;12.95;;;8.70;99.90;;;;;;5072134;28;20046;-77
2021/04/20 07:03:15;;;;;;;17.95;14.00;;;8.70;99.90;;;;;;5074166;28;20041;-76
2021/04/20 07:06:07;;;;;;;17.73;14.43;;;8.90;99.90;;;;;;5074203;28;20092;-75
2021/04/20 07:08:35;;;;;;;17.60;13.95;;;8.90;99.90;;;;;;5070544;28;20029;-76
2021/04/20 07:11:06;;;;;;;16.15;13.55;;;9.00;99.90;;;;;;5071743;28;20028;-75
2021/04/20 07:13:35;;;;;;;18.83;14.35;;;9.20;99.90;;;;;;5072132;28;20028;-77
2021/04/20 07:16:09;;;;;;;16.73;14.05;;;9.30;99.90;;;;;;5073242;28;20052;-77
2021/04/20 07:18:59;;;;;;;14.73;12.77;;;9.30;99.90;;;;;;5075859;28;20107;-75
2021/04/20 07:22:02;;;;;;;15.48;12.73;;;9.40;99.90;;;;;;5075920;28;20059;-77
2021/04/20 07:25:22;;;;;;;16.98;13.05;;;9.40;99.90;;;;;;5073871;28;20028;-75
2021/04/20 07:28:36;;;;;;;16.75;12.70;;;9.40;99.90;;;;;;5053333;28;20531;-79
2021/04/20 07:31:24;;;;;;;14.60;13.00;;;9.40;99.90;;;;;;5070649;28;20085;-76
2021/04/20 07:34:25;;;;;;;16.17;13.45;;;9.40;99.90;;;;;;5075537;28;20021;-77
2021/04/20 07:37:04;;;;;;;17.10;14.25;;;9.30;99.90;;;;;;5075581;28;20047;-80
2021/04/20 07:40:05;;;;;;;17.10;13.52;;;9.40;99.90;;;;;;5074196;28;20373;-75
2021/04/20 07:43:00;;;;;;;18.17;13.90;;;9.40;99.90;;;;;;5066794;28;20043;-78
2021/04/20 07:45:36;;;;;;;15.48;13.73;;;9.50;99.90;;;;;;5075193;28;20032;-79
2021/04/20 07:48:27;;;;;;;;;;;9.50;99.90;;;;;;5074309;28;20052;-75
2021/04/20 07:51:03;;;;;;;16.92;12.85;;;9.60;99.90;;;;;;5072979;28;19909;-77
2021/04/20 07:54:01;;;;;;;15.40;12.15;;;9.70;99.90;;;;;;5075151;28;20022;-77
2021/04/20 07:56:51;;;;;;;17.00;13.15;;;9.80;99.90;;;;;;5074887;28;20036;-78
2021/04/20 07:59:33;;;;;;;16.17;12.43;;;9.80;99.90;;;;;;5073499;28;20044;-78
2021/04/20 08:02:10;;;;;;;16.05;12.25;;;9.90;99.90;;;;;;5074754;28;20527;-79
2021/04/20 08:05:14;;;;;;;16.00;12.98;;;10.00;99.90;;;;;;5073746;28;20450;-77
2021/04/20 08:07:39;;;;;;;17.40;13.18;;;10.00;99.90;;;;;;5074770;28;20028;-76
2021/04/20 08:10:09;;;;;;;16.02;13.40;;;10.00;99.90;;;;;;5073461;28;20020;-75
2021/04/20 08:12:49;;;;;;;15.00;12.48;;;9.90;99.90;;;;;;5074848;28;20032;-77
2021/04/20 08:15:22;;;;;;;14.50;12.35;;;9.90;99.90;;;;;;5074800;28;20044;-77
2021/04/20 08:17:55;;;;;;;14.95;12.60;;;9.80;99.90;;;;;;5074821;28;20024;-77
2021/04/20 08:20:24;;;;;;;17.70;12.88;;;9.70;99.90;;;;;;5074746;28;20054;-75
2021/04/20 08:22:51;;;;;;;16.30;13.55;;;9.60;99.90;;;;;;5074689;28;20066;-78
2021/04/20 08:25:36;;;;;;;26.67;20.77;;;9.70;99.90;;;;;;5074627;28;20017;-77
2021/04/20 08:28:17;;;;;;;5.00;3.97;;;9.70;99.90;;;;;;5073231;28;20074;-77
2021/04/20 08:30:53;;;;;;;2.70;2.25;;;9.60;99.90;;;;;;5074632;28;20021;-76
2021/04/20 08:33:30;;;;;;;3.40;2.78;;;9.70;99.90;;;;;;5074300;28;20028;-77
2021/04/20 08:35:59;;;;;;;6.20;3.65;;;9.80;99.90;;;;;;5074302;28;20504;-77
2021/04/20 08:39:02;;;;;;;3.47;2.53;;;9.80;99.90;;;;;;5074315;28;20117;-76
2021/04/20 08:41:39;;;;;;;4.28;2.97;;;9.90;99.90;;;;;;5074005;28;20028;-77
2021/04/20 08:44:26;;;;;;;4.20;3.53;;;9.90;99.90;;;;;;5074229;28;20021;-78
2021/04/20 08:47:11;;;;;;;4.40;3.53;;;10.00;99.90;;;;;;5072879;28;20097;-81
2021/04/20 08:49:45;;;;;;;5.70;3.90;;;10.10;99.90;;;;;;5074129;28;20028;-76
2021/04/20 08:52:47;;;;;;;5.47;4.50;;;10.20;99.90;;;;;;5073879;28;20025;-77
2021/04/20 08:55:34;;;;;;;7.75;5.32;;;10.30;99.90;;;;;;5072412;28;20039;-77
2021/04/20 08:58:09;;;;;;;7.45;5.50;;;10.30;99.90;;;;;;5073870;28;20028;-79
2021/04/20 09:01:17;;;;;;;7.57;4.75;;;10.40;99.90;;;;;;5072035;28;20114;-77
2021/04/20 09:04:03;;;;;;;7.85;5.70;;;10.70;99.90;;;;;;5073645;28;20025;-81
2021/04/20 09:06:47;;;;;;;6.00;5.28;;;11.00;99.90;;;;;;5073729;28;20486;-78
2021/04/20 09:09:14;;;;;;;5.57;4.80;;;11.10;99.90;;;;;;5073568;28;20168;-77
2021/04/20 09:11:56;;;;;;;5.13;4.38;;;11.10;99.80;;;;;;5073660;28;20074;-82
2021/04/20 09:14:28;;;;;;;5.50;3.55;;;11.30;99.90;;;;;;5072420;28;20375;-80
2021/04/20 09:17:01;;;;;;;2.67;2.47;;;11.40;99.50;;;;;;5072230;28;20017;-78
2021/04/20 09:19:33;;;;;;;13.85;5.07;;;11.30;97.30;;;;;;5073738;28;20136;-76
2021/04/20 09:21:58;;;;;;;7.10;2.95;;;11.20;98.60;;;;;;5073584;28;20020;-79
2021/04/20 09:24:36;;;;;;;2.67;1.83;;;11.20;96.70;;;;;;5073471;28;20074;-77
2021/04/20 09:27:10;;;;;;;2.80;2.30;;;11.20;97.20;;;;;;5073283;28;20021;-78
2021/04/20 09:29:39;;;;;;;3.83;3.23;;;11.00;98.10;;;;;;5072021;28;20418;-79
2021/04/20 09:32:20;;;;;;;7.20;3.33;;;11.00;97.50;;;;;;5073260;28;20029;-75
2021/04/20 09:34:49;;;;;;;4.30;2.72;;;11.00;98.00;;;;;;5073212;28;20540;-78
2021/04/20 09:37:16;;;;;;;7.05;3.65;;;11.10;98.00;;;;;;5071249;28;20597;-75
2021/04/20 09:39:45;;;;;;;8.93;6.53;;;11.50;98.40;;;;;;5073216;28;20039;-78
2021/04/20 09:42:12;;;;;;;4.70;3.58;;;11.60;97.50;;;;;;5082554;28;20363;-77
2021/04/20 09:45:07;;;;;;;2.72;2.40;;;11.40;97.10;;;;;;5074713;28;20031;-78
2021/04/20 09:47:36;;;;;;;2.72;2.13;;;11.30;97.20;;;;;;5080085;28;20464;-79
2021/04/20 09:50:12;;;;;;;2.28;1.95;;;11.50;98.70;;;;;;5076496;28;20040;-82
2021/04/20 09:52:40;;;;;;;;;;;11.50;97.20;;;;;;5079489;28;20039;-81
2021/04/20 09:55:15;;;;;;;2.33;1.90;;;11.60;97.20;;;;;;5073107;28;19908;-84
2021/04/20 09:57:47;;;;;;;2.45;2.03;;;11.70;98.80;;;;;;5073338;28;20020;-82
2021/04/20 10:00:15;;;;;;;2.53;2.13;;;11.80;96.60;;;;;;5072558;28;20048;-79
2021/04/20 10:03:23;;;;;;;3.75;2.30;;;11.70;97.10;;;;;;5071991;28;20051;-84
2021/04/20 10:06:26;;;;;;;2.33;1.98;;;11.80;99.20;;;;;;5072389;28;20089;-82
2021/04/20 10:09:36;;;;;;;4.82;2.53;;;12.20;97.20;;;;;;5072238;28;20032;-82
2021/04/20 10:12:45;;;;;;;2.97;2.38;;;12.40;97.40;;;;;;5050407;28;20127;-82
2021/04/20 10:15:36;;;;;;;6.03;2.60;;;12.50;96.80;;;;;;5073009;28;20074;-86
2021/04/20 10:18:02;;;;;;;3.80;2.63;;;12.60;98.40;;;;;;5073440;28;20017;-86
2021/04/20 10:21:03;;;;;;;3.17;2.83;;;12.90;99.10;;;;;;5073303;28;20486;-86
2021/04/20 10:23:47;;;;;;;3.90;3.30;;;13.00;99.20;;;;;;5069991;28;20040;-84
2021/04/20 10:26:22;;;;;;;4.82;3.72;;;13.10;95.20;;;;;;5073721;28;20468;-85
2021/04/20 10:29:15;;;;;;;5.53;3.90;;;13.00;95.10;;;;;;5074178;28;20020;-88
2021/04/20 10:32:08;;;;;;;5.30;3.80;;;13.00;93.70;;;;;;5073115;28;20027;-88
2021/04/20 10:34:36;;;;;;;4.80;4.30;;;13.00;96.00;;;;;;5072878;28;20373;-84
2021/04/20 10:37:03;;;;;;;5.78;4.88;;;12.90;96.90;;;;;;5072644;28;20059;-87
2021/04/20 10:39:30;;;;;;;6.60;4.55;;;12.90;96.20;;;;;;5072527;28;20089;-86
2021/04/20 10:41:56;;;;;;;5.30;4.80;;;12.90;96.20;;;;;;5072037;28;20035;-87
2021/04/20 10:44:31;;;;;;;6.55;5.05;;;13.00;97.20;;;;;;5073012;28;20036;-86
2021/04/20 10:46:58;;;;;;;5.77;4.60;;;12.90;97.30;;;;;;5072205;28;20052;-84
2021/04/20 10:49:27;;;;;;;5.43;4.90;;;13.10;96.60;;;;;;5072671;28;20261;-87
2021/04/20 10:51:57;;;;;;;5.35;4.65;;;13.10;95.10;;;;;;5074855;28;20161;-86
2021/04/20 10:54:32;;;;;;;7.68;6.20;;;13.20;99.00;;;;;;5076071;28;20025;-84
2021/04/20 10:56:58;;;;;;;6.65;5.95;;;13.50;98.40;;;;;;5076112;28;20111;-85
2021/04/20 10:59:39;;;;;;;7.15;5.22;;;13.70;97.90;;;;;;5075920;28;20028;-86
2021/04/20 11:02:10;;;;;;;6.53;5.25;;;13.70;96.60;;;;;;5076344;28;20151;-85
2021/04/20 11:04:37;;;;;;;5.93;5.32;;;13.60;94.80;;;;;;5076613;28;20031;-88
2021/04/20 11:07:03;;;;;;;6.10;5.15;;;13.60;95.50;;;;;;5077040;28;20017;-84
2021/04/20 11:09:32;;;;;;;5.68;4.53;;;13.50;96.90;;;;;;5077131;28;20119;-83
2021/04/20 11:12:10;;;;;;;6.20;5.60;;;13.50;96.90;;;;;;5076863;28;20115;-85
2021/04/20 11:14:38;;;;;;;6.55;5.85;;;13.40;96.60;;;;;;5077022;28;20114;-86
2021/04/20 11:17:04;;;;;;;6.05;5.00;;;13.50;96.70;;;;;;5077062;28;20025;-85
2021/04/20 11:19:35;;;;;;;6.03;5.05;;;13.60;95.50;;;;;;5076678;28;20044;-86
2021/04/20 11:22:01;;;;;;;6.20;5.32;;;13.60;95.60;;;;;;5076840;28;20098;-89
2021/04/20 11:24:33;;;;;;;6.05;5.45;;;13.70;96.70;;;;;;5078156;28;20086;-88
2021/04/20 11:27:09;;;;;;;7.95;5.28;;;13.80;94.90;;;;;;5076839;28;20016;-84
2021/04/20 11:29:56;;;;;;;7.22;5.70;;;13.90;94.50;;;;;;5076964;28;20093;-84
2021/04/20 11:32:24;;;;;;;7.45;5.35;;;13.90;94.20;;;;;;5076594;28;20060;-86
2021/04/20 11:34:54;;;;;;;7.38;6.20;;;13.90;92.50;;;;;;5076463;28;20023;-85
2021/04/20 11:37:23;;;;;;;6.55;5.75;;;14.10;96.00;;;;;;5076372;28;20055;-87
2021/04/20 11:39:54;;;;;;;7.30;6.05;;;14.30;94.90;;;;;;5076579;28;20036;-85
2021/04/20 11:42:32;;;;;;;6.00;5.40;;;14.30;94.90;;;;;;5075869;28;20021;-87
2021/04/20 11:45:04;;;;;;;5.00;4.50;;;14.40;94.30;;;;;;5076197;28;20027;-86
2021/04/20 11:47:30;;;;;;;5.63;5.10;;;14.50;92.70;;;;;;5075684;28;20115;-85
2021/04/20 11:50:08;;;;;;;6.68;5.32;;;14.50;93.90;;;;;;5076372;28;20020;-88
2021/04/20 11:52:35;;;;;;;6.15;5.28;;;14.70;93.90;;;;;;5075395;28;20028;-86
2021/04/20 11:55:14;;;;;;;7.07;6.00;;;14.60;93.00;;;;;;5075972;28;20031;-86
2021/04/20 11:57:41;;;;;;;8.50;6.00;;;14.40;93.30;;;;;;5075723;28;20108;-86
2021/04/20 12:00:09;;;;;;;6.88;6.10;;;14.20;93.80;;;;;;5075810;28;20036;-86
2021/04/20 12:02:36;;;;;;;9.43;6.47;;;14.10;93.60;;;;;;5074748;28;20045;-85
2021/04/20 12:05:08;;;;;;;7.53;6.22;;;14.10;94.70;;;;;;5075640;28;20028;-87
2021/04/20 12:07:35;;;;;;;7.00;6.22;;;14.10;92.10;;;;;;5075688;28;20021;-86
2021/04/20 12:10:06;;;;;;;7.95;6.90;;;13.80;93.60;;;;;;5075670;28;20037;-88
2021/04/20 12:12:34;;;;;;;7.30;6.00;;;13.90;94.40;;;;;;5075605;28;20491;-88
2021/04/20 12:15:04;;;;;;;7.68;6.88;;;13.70;93.60;;;;;;5075398;28;20050;-88
2021/04/20 12:17:38;;;;;;;9.48;6.60;;;13.80;94.00;;;;;;5075238;28;20027;-85
2021/04/20 12:20:31;;;;;;;7.85;7.03;;;14.00;95.10;;;;;;5075244;28;20024;-88
2021/04/20 12:22:58;;;;;;;9.38;7.18;;;13.90;93.90;;;;;;5072393;28;20086;-85
2021/04/20 12:25:26;;;;;;;9.70;7.97;;;14.00;94.40;;;;;;5075364;28;20415;-84
2021/04/20 12:27:57;;;;;;;8.93;7.57;;;13.90;92.90;;;;;;5075464;28;20028;-86
2021/04/20 12:30:25;;;;;;;9.35;8.43;;;13.80;94.10;;;;;;5075640;28;20051;-88
2021/04/20 12:32:51;;;;;;;9.30;6.72;;;14.10;93.90;;;;;;5075626;28;20055;-87
2021/04/20 12:35:26;;;;;;;9.00;7.60;;;14.30;93.00;;;;;;5077071;28;20363;-87
2021/04/20 12:37:56;;;;;;;8.70;7.80;;;14.60;93.30;;;;;;5077229;28;20024;-88
2021/04/20 12:40:23;;;;;;;7.35;6.65;;;14.90;91.80;;;;;;5076601;28;20044;-87
2021/04/20 12:42:57;;;;;;;9.88;7.80;;;15.20;86.90;;;;;;5075217;28;20027;-84
2021/04/20 12:45:27;;;;;;;8.75;7.22;;;15.10;89.80;;;;;;5075497;28;20032;-87
2021/04/20 12:47:56;;;;;;;11.65;8.35;;;14.90;85.50;;;;;;5075017;28;20108;-84
2021/04/20 12:50:29;;;;;;;9.50;8.18;;;14.70;91.00;;;;;;5075042;28;20043;-86
2021/04/20 12:53:00;;;;;;;9.40;8.00;;;14.60;91.80;;;;;;5074762;28;20082;-85
2021/04/20 12:55:27;;;;;;;10.20;7.78;;;14.50;90.60;;;;;;5074873;28;20428;-86
2021/04/20 12:57:55;;;;;;;9.02;8.13;;;14.30;89.60;;;;;;5074394;28;20502;-87
2021/04/20 13:00:27;;;;;;;9.88;8.02;;;14.00;91.50;;;;;;5074748;28;20045;-88
2021/04/20 13:02:56;;;;;;;11.65;7.13;;;14.20;90.40;;;;;;5074897;28;20039;-88
2021/04/20 13:05:37;;;;;;;9.50;8.15;;;14.40;90.70;;;;;;5074868;28;20095;-87
2021/04/20 13:08:09;;;;;;;10.93;8.20;;;14.80;91.70;;;;;;5075797;28;20028;-88